sensor_id;sensor_type;location;lat;lon;timestamp;temperature;humidity
20442;DHT22;10380;52.102;20.614;2022-11-20T00:01:24;-3.00;99.90
20442;DHT22;10380;52.102;20.614;2022-11-20T00:03:53;-3.00;99.90
20442;DHT22;10380;52.102;20.614;2022-11-20T00:06:21;-3.00;99.90
20442;DHT22;10380;52.102;20.614;2022-11-20T00:08:49;-2.90;99.90
20442;DHT22;10380;52.102;20.614;2022-11-20T00:11:18;-2.90;99.90
20442;DHT22;10380;52.102;20.614;2022-11-20T00:13:48;-2.90;99.90
20442;DHT22;10380;52.102;20.614;2022-11-20T00:16:17;-2.80;99.90
20442;DHT22;10380;52.102;20.614;2022-11-20T00:18:45;-2.80;99.90
20442;DHT22;10380;52.102;20.614;2022-11-20T00:21:18;-2.70;99.90
20442;DHT22;10380;52.102;20.614;2022-11-20T00:23:48;-2.70;99.90
20442;DHT22;10380;52.102;20.614;2022-11-20T00:26:17;-2.70;99.90
20442;DHT22;10380;52.102;20.614;2022-11-20T00:28:48;-2.60;99.90
20442;DHT22;10380;52.102;20.614;2022-11-20T00:31:16;-2.60;99.90
20442;DHT22;10380;52.102;20.614;2022-11-20T00:33:44;-2.60;99.90
20442;DHT22;10380;52.102;20.614;2022-11-20T00:36:16;-2.50;99.90
20442;DHT22;10380;52.102;20.614;2022-11-20T00:38:44;-2.50;99.90
20442;DHT22;10380;52.102;20.614;2022-11-20T00:41:14;-2.50;99.90
20442;DHT22;10380;52.102;20.614;2022-11-20T00:43:42;-2.50;99.90
20442;DHT22;10380;52.102;20.614;2022-11-20T00:46:17;-2.50;99.90
20442;DHT22;10380;52.102;20.614;2022-11-20T00:48:45;-2.40;99.90
20442;DHT22;10380;52.102;20.614;2022-11-20T00:51:17;-2.50;99.90
20442;DHT22;10380;52.102;20.614;2022-11-20T00:53:45;-2.50;99.90
20442;DHT22;10380;52.102;20.614;2022-11-20T00:56:14;-2.40;99.90
20442;DHT22;10380;52.102;20.614;2022-11-20T00:58:44;-2.50;99.90
20442;DHT22;10380;52.102;20.614;2022-11-20T01:01:17;-2.40;99.90
20442;DHT22;10380;52.102;20.614;2022-11-20T01:03:46;-2.50;99.90
20442;DHT22;10380;52.102;20.614;2022-11-20T01:06:16;-2.40;99.90
20442;DHT22;10380;52.102;20.614;2022-11-20T01:08:45;-2.40;99.90
20442;DHT22;10380;52.102;20.614;2022-11-20T01:11:15;-2.40;99.90
20442;DHT22;10380;52.102;20.614;2022-11-20T01:13:45;-2.40;99.90
20442;DHT22;10380;52.102;20.614;2022-11-20T01:18:46;-2.40;99.90
20442;DHT22;10380;52.102;20.614;2022-11-20T01:21:16;-2.40;99.90
20442;DHT22;10380;52.102;20.614;2022-11-20T01:23:44;-2.40;99.90
20442;DHT22;10380;52.102;20.614;2022-11-20T01:26:16;-2.30;99.90
20442;DHT22;10380;52.102;20.614;2022-11-20T01:28:44;-2.40;99.90
20442;DHT22;10380;52.102;20.614;2022-11-20T01:31:22;-2.30;99.90
20442;DHT22;10380;52.102;20.614;2022-11-20T01:33:54;-2.30;99.90
20442;DHT22;10380;52.102;20.614;2022-11-20T01:36:23;-2.30;99.90
20442;DHT22;10380;52.102;20.614;2022-11-20T01:38:55;-2.30;99.90
20442;DHT22;10380;52.102;20.614;2022-11-20T01:41:24;-2.30;99.90
20442;DHT22;10380;52.102;20.614;2022-11-20T01:44:15;-2.30;99.90
20442;DHT22;10380;52.102;20.614;2022-11-20T01:46:56;-2.30;99.90
20442;DHT22;10380;52.102;20.614;2022-11-20T01:49:40;-2.30;99.90
20442;DHT22;10380;52.102;20.614;2022-11-20T01:52:26;-2.30;99.90
20442;DHT22;10380;52.102;20.614;2022-11-20T01:55:02;-2.30;99.90
20442;DHT22;10380;52.102;20.614;2022-11-20T01:57:31;-2.30;99.90
20442;DHT22;10380;52.102;20.614;2022-11-20T02:00:06;-2.30;99.90
20442;DHT22;10380;52.102;20.614;2022-11-20T02:02:35;-2.20;99.90
20442;DHT22;10380;52.102;20.614;2022-11-20T02:07:52;-2.20;99.90
20442;DHT22;10380;52.102;20.614;2022-11-20T02:10:21;-2.20;99.90
20442;DHT22;10380;52.102;20.614;2022-11-20T02:12:48;-2.00;99.90
20442;DHT22;10380;52.102;20.614;2022-11-20T02:15:33;-2.20;99.90
20442;DHT22;10380;52.102;20.614;2022-11-20T02:18:02;-2.20;99.90
20442;DHT22;10380;52.102;20.614;2022-11-20T02:20:29;-2.20;99.90
20442;DHT22;10380;52.102;20.614;2022-11-20T02:23:09;-2.10;99.90
20442;DHT22;10380;52.102;20.614;2022-11-20T02:25:37;-2.20;99.90
20442;DHT22;10380;52.102;20.614;2022-11-20T02:28:06;-2.20;99.90
20442;DHT22;10380;52.102;20.614;2022-11-20T02:30:33;-2.20;99.90
20442;DHT22;10380;52.102;20.614;2022-11-20T02:33:01;-2.20;99.90
20442;DHT22;10380;52.102;20.614;2022-11-20T02:37:57;-2.20;99.90
20442;DHT22;10380;52.102;20.614;2022-11-20T02:40:24;-2.20;99.90
20442;DHT22;10380;52.102;20.614;2022-11-20T02:42:53;-2.30;99.90
20442;DHT22;10380;52.102;20.614;2022-11-20T02:45:21;-2.30;99.90
20442;DHT22;10380;52.102;20.614;2022-11-20T02:47:49;-2.30;99.90
20442;DHT22;10380;52.102;20.614;2022-11-20T02:50:17;-2.30;99.90
20442;DHT22;10380;52.102;20.614;2022-11-20T02:52:44;-2.30;99.90
20442;DHT22;10380;52.102;20.614;2022-11-20T02:55:11;-2.30;99.90
20442;DHT22;10380;52.102;20.614;2022-11-20T02:57:38;-2.30;99.90
20442;DHT22;10380;52.102;20.614;2022-11-20T03:00:06;-2.30;99.90
20442;DHT22;10380;52.102;20.614;2022-11-20T03:02:33;-2.30;99.90
20442;DHT22;10380;52.102;20.614;2022-11-20T03:05:00;-2.30;99.90
20442;DHT22;10380;52.102;20.614;2022-11-20T03:07:27;-2.30;99.90
20442;DHT22;10380;52.102;20.614;2022-11-20T03:09:54;-2.30;99.90
20442;DHT22;10380;52.102;20.614;2022-11-20T03:12:21;-2.30;99.90
20442;DHT22;10380;52.102;20.614;2022-11-20T03:14:48;-2.30;99.90
20442;DHT22;10380;52.102;20.614;2022-11-20T03:17:19;-2.30;99.90
20442;DHT22;10380;52.102;20.614;2022-11-20T03:19:45;-2.30;99.90
20442;DHT22;10380;52.102;20.614;2022-11-20T03:22:12;-2.40;99.90
20442;DHT22;10380;52.102;20.614;2022-11-20T03:24:39;-2.40;99.90
20442;DHT22;10380;52.102;20.614;2022-11-20T03:27:06;-2.40;99.90
20442;DHT22;10380;52.102;20.614;2022-11-20T03:29:34;-2.50;99.90
20442;DHT22;10380;52.102;20.614;2022-11-20T03:32:01;-2.50;99.90
20442;DHT22;10380;52.102;20.614;2022-11-20T03:34:28;-2.60;99.90
20442;DHT22;10380;52.102;20.614;2022-11-20T03:36:55;-2.60;99.90
20442;DHT22;10380;52.102;20.614;2022-11-20T03:39:21;-2.60;99.90
20442;DHT22;10380;52.102;20.614;2022-11-20T03:41:48;-2.60;99.90
20442;DHT22;10380;52.102;20.614;2022-11-20T03:44:15;-2.60;99.90
20442;DHT22;10380;52.102;20.614;2022-11-20T03:46:42;-2.60;99.90
20442;DHT22;10380;52.102;20.614;2022-11-20T03:49:09;-2.60;99.90
20442;DHT22;10380;52.102;20.614;2022-11-20T03:51:36;-2.60;99.90
20442;DHT22;10380;52.102;20.614;2022-11-20T03:54:05;-2.70;99.90
20442;DHT22;10380;52.102;20.614;2022-11-20T03:56:35;-2.70;99.90
20442;DHT22;10380;52.102;20.614;2022-11-20T03:59:03;-2.70;99.90
20442;DHT22;10380;52.102;20.614;2022-11-20T04:01:34;-2.70;99.90
20442;DHT22;10380;52.102;20.614;2022-11-20T04:04:02;-2.80;99.90
20442;DHT22;10380;52.102;20.614;2022-11-20T04:06:34;-2.90;99.90
20442;DHT22;10380;52.102;20.614;2022-11-20T04:09:01;-2.90;99.90
20442;DHT22;10380;52.102;20.614;2022-11-20T04:11:32;-3.00;99.90
20442;DHT22;10380;52.102;20.614;2022-11-20T04:14:04;-3.00;99.90
20442;DHT22;10380;52.102;20.614;2022-11-20T04:16:33;-3.10;99.90
20442;DHT22;10380;52.102;20.614;2022-11-20T04:19:03;-3.10;99.90
20442;DHT22;10380;52.102;20.614;2022-11-20T04:21:30;-3.20;99.90
20442;DHT22;10380;52.102;20.614;2022-11-20T04:23:58;-3.20;99.90
20442;DHT22;10380;52.102;20.614;2022-11-20T04:26:26;-3.20;99.90
20442;DHT22;10380;52.102;20.614;2022-11-20T04:28:53;-3.30;99.90
20442;DHT22;10380;52.102;20.614;2022-11-20T04:31:25;-3.30;99.90
20442;DHT22;10380;52.102;20.614;2022-11-20T04:33:52;-3.40;99.90
20442;DHT22;10380;52.102;20.614;2022-11-20T04:36:22;-3.40;99.90
20442;DHT22;10380;52.102;20.614;2022-11-20T04:38:56;-3.40;99.90
20442;DHT22;10380;52.102;20.614;2022-11-20T04:41:26;-3.40;99.90
20442;DHT22;10380;52.102;20.614;2022-11-20T04:43:56;-3.40;99.90
20442;DHT22;10380;52.102;20.614;2022-11-20T04:46:27;-3.50;99.90
20442;DHT22;10380;52.102;20.614;2022-11-20T04:48:55;-3.50;99.90
20442;DHT22;10380;52.102;20.614;2022-11-20T04:51:22;-3.50;99.90
20442;DHT22;10380;52.102;20.614;2022-11-20T04:53:49;-3.50;99.90
20442;DHT22;10380;52.102;20.614;2022-11-20T04:56:16;-3.50;99.90
20442;DHT22;10380;52.102;20.614;2022-11-20T04:58:43;-3.60;99.90
20442;DHT22;10380;52.102;20.614;2022-11-20T05:01:16;-3.60;99.90
20442;DHT22;10380;52.102;20.614;2022-11-20T05:03:44;-3.60;99.90
20442;DHT22;10380;52.102;20.614;2022-11-20T05:06:12;-3.60;99.90
20442;DHT22;10380;52.102;20.614;2022-11-20T05:08:40;-3.60;99.90
20442;DHT22;10380;52.102;20.614;2022-11-20T05:11:15;-3.70;99.90
20442;DHT22;10380;52.102;20.614;2022-11-20T05:13:42;-3.70;99.90
20442;DHT22;10380;52.102;20.614;2022-11-20T05:16:17;-3.70;99.90
20442;DHT22;10380;52.102;20.614;2022-11-20T05:18:45;-3.70;99.90
20442;DHT22;10380;52.102;20.614;2022-11-20T05:21:13;-3.70;99.90
20442;DHT22;10380;52.102;20.614;2022-11-20T05:23:41;-3.70;99.90
20442;DHT22;10380;52.102;20.614;2022-11-20T05:26:19;-3.80;99.90
20442;DHT22;10380;52.102;20.614;2022-11-20T05:28:48;-3.80;99.90
20442;DHT22;10380;52.102;20.614;2022-11-20T05:31:17;-3.80;99.90
20442;DHT22;10380;52.102;20.614;2022-11-20T05:33:52;-3.80;99.90
20442;DHT22;10380;52.102;20.614;2022-11-20T05:36:19;-3.80;99.90
20442;DHT22;10380;52.102;20.614;2022-11-20T05:38:46;-3.90;99.90
20442;DHT22;10380;52.102;20.614;2022-11-20T05:41:18;-3.90;99.90
20442;DHT22;10380;52.102;20.614;2022-11-20T05:43:47;-3.90;99.90
20442;DHT22;10380;52.102;20.614;2022-11-20T05:46:16;-3.90;99.90
20442;DHT22;10380;52.102;20.614;2022-11-20T05:48:44;-4.00;99.90
20442;DHT22;10380;52.102;20.614;2022-11-20T05:51:13;-3.90;99.90
20442;DHT22;10380;52.102;20.614;2022-11-20T05:53:40;-3.90;99.90
20442;DHT22;10380;52.102;20.614;2022-11-20T05:56:16;-3.90;99.90
20442;DHT22;10380;52.102;20.614;2022-11-20T05:58:44;-3.90;99.90
20442;DHT22;10380;52.102;20.614;2022-11-20T06:01:29;-3.90;99.90
20442;DHT22;10380;52.102;20.614;2022-11-20T06:03:55;-4.00;99.90
20442;DHT22;10380;52.102;20.614;2022-11-20T06:06:22;-4.00;99.90
20442;DHT22;10380;52.102;20.614;2022-11-20T06:08:49;-4.00;99.90
20442;DHT22;10380;52.102;20.614;2022-11-20T06:11:17;-4.00;99.90
20442;DHT22;10380;52.102;20.614;2022-11-20T06:13:44;-4.00;99.90
20442;DHT22;10380;52.102;20.614;2022-11-20T06:16:12;-4.00;99.90
20442;DHT22;10380;52.102;20.614;2022-11-20T06:18:40;-4.00;99.90
20442;DHT22;10380;52.102;20.614;2022-11-20T06:21:12;-4.00;99.90
20442;DHT22;10380;52.102;20.614;2022-11-20T06:23:40;-4.00;99.90
20442;DHT22;10380;52.102;20.614;2022-11-20T06:26:15;-4.00;99.90
20442;DHT22;10380;52.102;20.614;2022-11-20T06:28:43;-4.00;99.90
20442;DHT22;10380;52.102;20.614;2022-11-20T06:31:14;-4.00;99.90
20442;DHT22;10380;52.102;20.614;2022-11-20T06:33:42;-4.10;99.90
20442;DHT22;10380;52.102;20.614;2022-11-20T06:36:11;-4.10;99.90
20442;DHT22;10380;52.102;20.614;2022-11-20T06:38:39;-4.00;99.90
20442;DHT22;10380;52.102;20.614;2022-11-20T06:41:08;-4.00;99.90
20442;DHT22;10380;52.102;20.614;2022-11-20T06:43:36;-4.00;99.90
20442;DHT22;10380;52.102;20.614;2022-11-20T06:46:03;-4.00;99.90
20442;DHT22;10380;52.102;20.614;2022-11-20T06:48:30;-3.90;99.90
20442;DHT22;10380;52.102;20.614;2022-11-20T06:50:57;-3.90;99.90
20442;DHT22;10380;52.102;20.614;2022-11-20T06:53:24;-3.90;99.90
20442;DHT22;10380;52.102;20.614;2022-11-20T06:55:52;-3.80;99.90
20442;DHT22;10380;52.102;20.614;2022-11-20T06:58:19;-3.70;99.90
20442;DHT22;10380;52.102;20.614;2022-11-20T07:00:46;-2.80;99.90
20442;DHT22;10380;52.102;20.614;2022-11-20T07:03:13;-3.60;99.90
20442;DHT22;10380;52.102;20.614;2022-11-20T07:05:40;-3.60;99.90
20442;DHT22;10380;52.102;20.614;2022-11-20T07:08:08;-3.60;99.90
20442;DHT22;10380;52.102;20.614;2022-11-20T07:10:35;-3.50;99.90
20442;DHT22;10380;52.102;20.614;2022-11-20T07:13:02;-3.40;99.90
20442;DHT22;10380;52.102;20.614;2022-11-20T07:15:29;-3.40;99.90
20442;DHT22;10380;52.102;20.614;2022-11-20T07:17:58;-3.40;99.90
20442;DHT22;10380;52.102;20.614;2022-11-20T07:20:26;-3.40;99.90
20442;DHT22;10380;52.102;20.614;2022-11-20T07:22:57;-3.30;99.90
20442;DHT22;10380;52.102;20.614;2022-11-20T07:25:26;-3.20;99.90
20442;DHT22;10380;52.102;20.614;2022-11-20T07:27:56;-3.10;99.90
20442;DHT22;10380;52.102;20.614;2022-11-20T07:30:24;-3.10;99.90
20442;DHT22;10380;52.102;20.614;2022-11-20T07:32:52;-3.10;99.90
20442;DHT22;10380;52.102;20.614;2022-11-20T07:35:19;-2.90;99.90
20442;DHT22;10380;52.102;20.614;2022-11-20T07:37:47;-2.90;99.90
20442;DHT22;10380;52.102;20.614;2022-11-20T07:40:18;-2.80;99.90
20442;DHT22;10380;52.102;20.614;2022-11-20T07:42:49;-2.70;99.90
20442;DHT22;10380;52.102;20.614;2022-11-20T07:45:21;-2.70;99.90
20442;DHT22;10380;52.102;20.614;2022-11-20T07:47:48;-2.60;99.90
20442;DHT22;10380;52.102;20.614;2022-11-20T07:50:15;-2.60;99.90
20442;DHT22;10380;52.102;20.614;2022-11-20T07:52:43;-1.70;99.90
20442;DHT22;10380;52.102;20.614;2022-11-20T07:55:10;-2.50;99.90
20442;DHT22;10380;52.102;20.614;2022-11-20T07:57:38;-2.40;99.90
20442;DHT22;10380;52.102;20.614;2022-11-20T08:00:07;-2.30;99.90
20442;DHT22;10380;52.102;20.614;2022-11-20T08:02:41;-2.20;99.90
20442;DHT22;10380;52.102;20.614;2022-11-20T08:05:09;-2.10;99.90
20442;DHT22;10380;52.102;20.614;2022-11-20T08:07:40;-2.00;99.90
20442;DHT22;10380;52.102;20.614;2022-11-20T08:10:10;-1.80;99.90
20442;DHT22;10380;52.102;20.614;2022-11-20T08:12:44;-1.70;99.90
20442;DHT22;10380;52.102;20.614;2022-11-20T08:15:30;-1.50;99.90
20442;DHT22;10380;52.102;20.614;2022-11-20T08:18:11;-1.40;99.90
20442;DHT22;10380;52.102;20.614;2022-11-20T08:21:02;-1.20;99.90
20442;DHT22;10380;52.102;20.614;2022-11-20T08:23:29;-0.90;99.90
20442;DHT22;10380;52.102;20.614;2022-11-20T08:25:57;-0.80;99.90
20442;DHT22;10380;52.102;20.614;2022-11-20T08:28:24;-0.70;99.90
20442;DHT22;10380;52.102;20.614;2022-11-20T08:30:51;-0.60;99.90
20442;DHT22;10380;52.102;20.614;2022-11-20T08:33:23;-0.50;99.90
20442;DHT22;10380;52.102;20.614;2022-11-20T08:35:50;-0.50;99.90
20442;DHT22;10380;52.102;20.614;2022-11-20T08:38:17;-0.40;99.90
20442;DHT22;10380;52.102;20.614;2022-11-20T08:40:44;-0.30;99.90
20442;DHT22;10380;52.102;20.614;2022-11-20T08:43:31;-0.20;99.90
20442;DHT22;10380;52.102;20.614;2022-11-20T08:45:58;-0.10;99.90
20442;DHT22;10380;52.102;20.614;2022-11-20T08:48:25;0.00;99.90
20442;DHT22;10380;52.102;20.614;2022-11-20T08:50:52;0.10;99.90
20442;DHT22;10380;52.102;20.614;2022-11-20T08:53:18;0.10;99.90
20442;DHT22;10380;52.102;20.614;2022-11-20T08:55:45;0.10;99.90
20442;DHT22;10380;52.102;20.614;2022-11-20T08:58:12;0.10;99.90
20442;DHT22;10380;52.102;20.614;2022-11-20T09:00:39;0.10;99.90
20442;DHT22;10380;52.102;20.614;2022-11-20T09:03:06;0.20;99.90
20442;DHT22;10380;52.102;20.614;2022-11-20T09:05:33;0.20;99.90
20442;DHT22;10380;52.102;20.614;2022-11-20T09:08:00;0.30;99.90
20442;DHT22;10380;52.102;20.614;2022-11-20T09:10:27;0.30;99.90
20442;DHT22;10380;52.102;20.614;2022-11-20T09:12:55;0.30;99.90
20442;DHT22;10380;52.102;20.614;2022-11-20T09:15:23;0.50;99.90
20442;DHT22;10380;52.102;20.614;2022-11-20T09:17:53;0.40;99.90
20442;DHT22;10380;52.102;20.614;2022-11-20T09:20:20;0.50;99.90
20442;DHT22;10380;52.102;20.614;2022-11-20T09:22:47;0.50;99.90
20442;DHT22;10380;52.102;20.614;2022-11-20T09:25:15;0.60;99.90
20442;DHT22;10380;52.102;20.614;2022-11-20T09:27:42;0.60;99.90
20442;DHT22;10380;52.102;20.614;2022-11-20T09:30:11;0.60;99.90
20442;DHT22;10380;52.102;20.614;2022-11-20T09:32:39;0.60;99.90
20442;DHT22;10380;52.102;20.614;2022-11-20T09:35:06;0.60;99.90
20442;DHT22;10380;52.102;20.614;2022-11-20T09:37:34;0.60;99.90
20442;DHT22;10380;52.102;20.614;2022-11-20T09:40:01;0.60;99.90
20442;DHT22;10380;52.102;20.614;2022-11-20T09:42:45;0.60;99.90
20442;DHT22;10380;52.102;20.614;2022-11-20T09:54:22;0.70;99.90
20442;DHT22;10380;52.102;20.614;2022-11-20T09:57:17;0.70;99.90
20442;DHT22;10380;52.102;20.614;2022-11-20T09:59:50;0.80;99.90
20442;DHT22;10380;52.102;20.614;2022-11-20T10:04:59;0.80;99.90
20442;DHT22;10380;52.102;20.614;2022-11-20T10:07:39;0.80;99.90
20442;DHT22;10380;52.102;20.614;2022-11-20T10:10:16;0.90;99.90
20442;DHT22;10380;52.102;20.614;2022-11-20T10:13:20;0.90;99.90
20442;DHT22;10380;52.102;20.614;2022-11-20T10:16:44;1.00;99.90
20442;DHT22;10380;52.102;20.614;2022-11-20T10:27:25;1.10;99.90
20442;DHT22;10380;52.102;20.614;2022-11-20T10:30:21;1.10;99.90
20442;DHT22;10380;52.102;20.614;2022-11-20T10:33:18;1.10;99.90
20442;DHT22;10380;52.102;20.614;2022-11-20T10:36:10;1.20;99.90
20442;DHT22;10380;52.102;20.614;2022-11-20T10:38:43;1.30;99.90
20442;DHT22;10380;52.102;20.614;2022-11-20T10:41:21;1.30;99.90
20442;DHT22;10380;52.102;20.614;2022-11-20T10:46:24;1.30;99.90
20442;DHT22;10380;52.102;20.614;2022-11-20T10:48:51;1.30;99.90
20442;DHT22;10380;52.102;20.614;2022-11-20T10:51:37;1.30;99.90
20442;DHT22;10380;52.102;20.614;2022-11-20T10:54:17;1.40;99.90
20442;DHT22;10380;52.102;20.614;2022-11-20T10:56:51;1.40;99.90
20442;DHT22;10380;52.102;20.614;2022-11-20T11:02:24;1.40;99.90
20442;DHT22;10380;52.102;20.614;2022-11-20T11:04:52;1.40;99.90
20442;DHT22;10380;52.102;20.614;2022-11-20T11:07:33;1.40;99.90
20442;DHT22;10380;52.102;20.614;2022-11-20T11:10:33;1.50;99.90
20442;DHT22;10380;52.102;20.614;2022-11-20T11:13:01;1.50;99.90
20442;DHT22;10380;52.102;20.614;2022-11-20T11:15:39;1.60;99.90
20442;DHT22;10380;52.102;20.614;2022-11-20T11:18:10;1.60;99.90
20442;DHT22;10380;52.102;20.614;2022-11-20T11:20:38;1.70;99.90
20442;DHT22;10380;52.102;20.614;2022-11-20T11:23:10;1.70;99.90
20442;DHT22;10380;52.102;20.614;2022-11-20T11:25:57;1.70;99.90
20442;DHT22;10380;52.102;20.614;2022-11-20T11:28:25;1.70;99.90
20442;DHT22;10380;52.102;20.614;2022-11-20T11:30:55;1.80;99.90
20442;DHT22;10380;52.102;20.614;2022-11-20T11:33:31;1.80;99.90
20442;DHT22;10380;52.102;20.614;2022-11-20T11:36:03;2.00;99.90
20442;DHT22;10380;52.102;20.614;2022-11-20T11:38:38;2.10;99.90
20442;DHT22;10380;52.102;20.614;2022-11-20T11:41:09;2.40;99.90
20442;DHT22;10380;52.102;20.614;2022-11-20T11:43:37;2.60;99.90
20442;DHT22;10380;52.102;20.614;2022-11-20T11:46:33;2.90;99.90
20442;DHT22;10380;52.102;20.614;2022-11-20T11:52:04;3.60;99.90
20442;DHT22;10380;52.102;20.614;2022-11-20T12:00:08;4.70;99.90
20442;DHT22;10380;52.102;20.614;2022-11-20T12:05:21;5.10;99.90
20442;DHT22;10380;52.102;20.614;2022-11-20T12:16:04;6.00;99.90
20442;DHT22;10380;52.102;20.614;2022-11-20T12:18:31;6.20;99.90
20442;DHT22;10380;52.102;20.614;2022-11-20T12:23:31;6.50;99.90
20442;DHT22;10380;52.102;20.614;2022-11-20T12:26:10;6.70;99.90
20442;DHT22;10380;52.102;20.614;2022-11-20T12:31:20;6.90;99.90
20442;DHT22;10380;52.102;20.614;2022-11-20T12:36:40;6.60;99.90
20442;DHT22;10380;52.102;20.614;2022-11-20T12:56:31;4.80;99.90
20442;DHT22;10380;52.102;20.614;2022-11-20T13:05:24;4.50;99.90
20442;DHT22;10380;52.102;20.614;2022-11-20T13:07:53;4.40;99.90
20442;DHT22;10380;52.102;20.614;2022-11-20T13:10:42;4.30;99.90
20442;DHT22;10380;52.102;20.614;2022-11-20T13:13:22;4.10;99.90
20442;DHT22;10380;52.102;20.614;2022-11-20T13:18:23;3.80;99.90
20442;DHT22;10380;52.102;20.614;2022-11-20T13:20:50;3.70;99.90
20442;DHT22;10380;52.102;20.614;2022-11-20T13:23:25;3.50;99.90
20442;DHT22;10380;52.102;20.614;2022-11-20T13:26:17;3.30;99.90
20442;DHT22;10380;52.102;20.614;2022-11-20T13:28:47;3.10;99.90
20442;DHT22;10380;52.102;20.614;2022-11-20T13:31:34;3.00;99.90
20442;DHT22;10380;52.102;20.614;2022-11-20T13:34:04;2.80;99.90
20442;DHT22;10380;52.102;20.614;2022-11-20T13:36:32;2.80;99.90
20442;DHT22;10380;52.102;20.614;2022-11-20T13:39:01;2.80;99.90
20442;DHT22;10380;52.102;20.614;2022-11-20T13:41:35;2.80;99.90
20442;DHT22;10380;52.102;20.614;2022-11-20T13:44:13;2.80;99.90
20442;DHT22;10380;52.102;20.614;2022-11-20T13:46:49;2.80;99.90
20442;DHT22;10380;52.102;20.614;2022-11-20T13:49:39;2.80;99.90
20442;DHT22;10380;52.102;20.614;2022-11-20T13:52:42;2.90;99.90
20442;DHT22;10380;52.102;20.614;2022-11-20T13:55:28;2.90;99.90
20442;DHT22;10380;52.102;20.614;2022-11-20T14:00:32;2.80;99.90
20442;DHT22;10380;52.102;20.614;2022-11-20T14:03:09;2.70;99.90
20442;DHT22;10380;52.102;20.614;2022-11-20T14:05:54;2.60;99.90
20442;DHT22;10380;52.102;20.614;2022-11-20T14:08:47;2.50;99.90
20442;DHT22;10380;52.102;20.614;2022-11-20T14:11:19;2.40;99.90
20442;DHT22;10380;52.102;20.614;2022-11-20T14:16:28;2.10;99.90
20442;DHT22;10380;52.102;20.614;2022-11-20T14:18:57;2.00;99.90
20442;DHT22;10380;52.102;20.614;2022-11-20T14:21:38;1.90;99.90
20442;DHT22;10380;52.102;20.614;2022-11-20T14:24:06;1.90;99.90
20442;DHT22;10380;52.102;20.614;2022-11-20T14:26:33;1.80;99.90
20442;DHT22;10380;52.102;20.614;2022-11-20T14:29:00;1.80;99.90
20442;DHT22;10380;52.102;20.614;2022-11-20T14:31:28;1.70;99.90
20442;DHT22;10380;52.102;20.614;2022-11-20T14:33:55;1.70;99.90
20442;DHT22;10380;52.102;20.614;2022-11-20T14:36:24;1.70;99.90
20442;DHT22;10380;52.102;20.614;2022-11-20T14:38:52;1.60;99.90
20442;DHT22;10380;52.102;20.614;2022-11-20T14:41:22;1.50;99.90
20442;DHT22;10380;52.102;20.614;2022-11-20T14:43:56;1.50;99.90
20442;DHT22;10380;52.102;20.614;2022-11-20T14:46:24;1.40;99.90
20442;DHT22;10380;52.102;20.614;2022-11-20T14:48:55;1.30;99.90
20442;DHT22;10380;52.102;20.614;2022-11-20T14:51:39;1.30;99.90
20442;DHT22;10380;52.102;20.614;2022-11-20T14:56:36;1.20;99.90
20442;DHT22;10380;52.102;20.614;2022-11-20T14:59:04;1.10;99.90
20442;DHT22;10380;52.102;20.614;2022-11-20T15:01:32;1.10;99.90
20442;DHT22;10380;52.102;20.614;2022-11-20T15:06:28;1.00;99.90
20442;DHT22;10380;52.102;20.614;2022-11-20T15:08:56;1.00;99.90
20442;DHT22;10380;52.102;20.614;2022-11-20T15:11:29;0.90;99.90
20442;DHT22;10380;52.102;20.614;2022-11-20T15:13:57;0.80;99.90
20442;DHT22;10380;52.102;20.614;2022-11-20T15:16:24;0.80;99.90
20442;DHT22;10380;52.102;20.614;2022-11-20T15:18:54;0.80;99.90
20442;DHT22;10380;52.102;20.614;2022-11-20T15:21:21;0.70;99.90
20442;DHT22;10380;52.102;20.614;2022-11-20T15:23:49;0.70;99.90
20442;DHT22;10380;52.102;20.614;2022-11-20T15:26:24;0.60;99.90
20442;DHT22;10380;52.102;20.614;2022-11-20T15:28:51;0.50;99.90
20442;DHT22;10380;52.102;20.614;2022-11-20T15:31:21;0.50;99.90
20442;DHT22;10380;52.102;20.614;2022-11-20T15:33:48;0.40;99.90
20442;DHT22;10380;52.102;20.614;2022-11-20T15:36:16;0.30;99.90
20442;DHT22;10380;52.102;20.614;2022-11-20T15:38:43;0.20;99.90
20442;DHT22;10380;52.102;20.614;2022-11-20T15:41:09;0.10;99.90
20442;DHT22;10380;52.102;20.614;2022-11-20T15:43:37;0.10;99.90
20442;DHT22;10380;52.102;20.614;2022-11-20T15:46:08;0.00;99.90
20442;DHT22;10380;52.102;20.614;2022-11-20T15:48:42;-0.10;99.90
20442;DHT22;10380;52.102;20.614;2022-11-20T15:51:32;-0.10;99.90
20442;DHT22;10380;52.102;20.614;2022-11-20T15:54:00;-0.10;99.90
20442;DHT22;10380;52.102;20.614;2022-11-20T15:56:28;-0.20;99.90
20442;DHT22;10380;52.102;20.614;2022-11-20T15:58:55;-0.30;99.90
20442;DHT22;10380;52.102;20.614;2022-11-20T16:01:22;-0.30;99.90
20442;DHT22;10380;52.102;20.614;2022-11-20T16:03:49;-0.40;99.90
20442;DHT22;10380;52.102;20.614;2022-11-20T16:06:16;-0.40;99.90
20442;DHT22;10380;52.102;20.614;2022-11-20T16:08:43;-0.40;99.90
20442;DHT22;10380;52.102;20.614;2022-11-20T16:11:15;-0.50;99.90
20442;DHT22;10380;52.102;20.614;2022-11-20T16:13:42;-0.50;99.90
20442;DHT22;10380;52.102;20.614;2022-11-20T16:18:55;-0.60;99.90
20442;DHT22;10380;52.102;20.614;2022-11-20T16:21:22;-0.60;99.90
20442;DHT22;10380;52.102;20.614;2022-11-20T16:23:59;-0.60;99.90
20442;DHT22;10380;52.102;20.614;2022-11-20T16:26:26;-0.70;99.90
20442;DHT22;10380;52.102;20.614;2022-11-20T16:28:54;-0.70;99.90
20442;DHT22;10380;52.102;20.614;2022-11-20T16:31:21;-0.70;99.90
20442;DHT22;10380;52.102;20.614;2022-11-20T16:33:53;-0.80;99.90
20442;DHT22;10380;52.102;20.614;2022-11-20T16:36:21;-0.80;99.90
20442;DHT22;10380;52.102;20.614;2022-11-20T16:38:55;-0.90;99.90
20442;DHT22;10380;52.102;20.614;2022-11-20T16:41:24;-0.90;99.90
20442;DHT22;10380;52.102;20.614;2022-11-20T16:43:54;-0.80;99.90
20442;DHT22;10380;52.102;20.614;2022-11-20T16:46:27;-1.00;99.90
20442;DHT22;10380;52.102;20.614;2022-11-20T16:49:05;-1.10;99.90
20442;DHT22;10380;52.102;20.614;2022-11-20T16:51:35;-1.10;99.90
20442;DHT22;10380;52.102;20.614;2022-11-20T16:54:03;-1.10;99.90
20442;DHT22;10380;52.102;20.614;2022-11-20T16:56:33;-1.10;99.90
20442;DHT22;10380;52.102;20.614;2022-11-20T16:59:01;-1.20;99.90
20442;DHT22;10380;52.102;20.614;2022-11-20T17:01:29;-1.20;99.90
20442;DHT22;10380;52.102;20.614;2022-11-20T17:04:03;-1.30;99.90
20442;DHT22;10380;52.102;20.614;2022-11-20T17:06:33;-1.30;99.90
20442;DHT22;10380;52.102;20.614;2022-11-20T17:09:00;-1.30;99.90
20442;DHT22;10380;52.102;20.614;2022-11-20T17:11:28;-1.30;99.90
20442;DHT22;10380;52.102;20.614;2022-11-20T17:13:58;-1.40;99.90
20442;DHT22;10380;52.102;20.614;2022-11-20T17:16:26;-1.40;99.90
20442;DHT22;10380;52.102;20.614;2022-11-20T17:18:55;-1.50;99.90
20442;DHT22;10380;52.102;20.614;2022-11-20T17:21:28;-1.50;99.90
20442;DHT22;10380;52.102;20.614;2022-11-20T17:23:58;-1.50;99.90